Time;durP1;ratioP1;P1;durP2;ratioP2;P2;SDS_P1;SDS_P2;PMS_P1;PMS_P2;Temp;Humidity;BMP_temperature;BMP_pressure;BME280_temperature;BME280_humidity;BME280_pressure;Samples;Min_cycle;Max_cycle;Signal;HPM_P1;HPM_P2
2022/11/29 00:00:36;;;;;;;182.57;18.70;;;;;;;;;;4949521;28;20035;-78
2022/11/29 00:03:02;;;;;;;106.60;14.73;;;;;;;;;;4946623;28;20122;-83
2022/11/29 00:05:28;;;;;;;117.30;15.52;;;;;;;;;;4944843;28;20047;-77
2022/11/29 00:07:54;;;;;;;103.13;16.60;;;;;;;;;;4946760;28;20508;-77
2022/11/29 00:10:20;;;;;;;122.90;15.82;;;;;;;;;;4949900;28;20504;-78
2022/11/29 00:12:47;;;;;;;152.15;18.75;;;;;;;;;;4945882;28;20048;-77
2022/11/29 00:15:13;;;;;;;164.25;19.25;;;;;;;;;;4943755;28;20031;-77
2022/11/29 00:17:39;;;;;;;196.70;19.95;;;;;;;;;;4943774;28;20070;-77
2022/11/29 00:20:06;;;;;;;84.35;15.52;;;;;;;;;;4945559;28;20035;-78
2022/11/29 00:22:32;;;;;;;174.90;18.00;;;;;;;;;;4950161;28;20031;-78
2022/11/29 00:24:58;;;;;;;137.85;16.90;;;;;;;;;;4942719;28;20062;-77
2022/11/29 00:27:24;;;;;;;101.43;16.20;;;;;;;;;;4912368;29;20617;-77
2022/11/29 00:29:50;;;;;;;150.85;17.23;;;;;;;;;;4930076;29;20032;-76
2022/11/29 00:32:16;;;;;;;114.88;14.90;;;;;;;;;;4930807;29;20506;-78
2022/11/29 00:34:42;;;;;;;138.60;15.02;;;;;;;;;;4930081;29;20035;-78
2022/11/29 00:37:08;;;;;;;126.03;15.00;;;;;;;;;;4928213;29;20060;-79
2022/11/29 00:39:34;;;;;;;146.25;14.25;;;;;;;;;;4930302;29;20485;-77
2022/11/29 00:42:00;;;;;;;102.30;14.25;;;;;;;;;;4928931;29;20118;-79
2022/11/29 00:44:26;;;;;;;120.38;14.05;;;;;;;;;;4931310;29;20063;-77
2022/11/29 00:46:52;;;;;;;106.13;15.35;;;;;;;;;;4930343;29;20036;-78
2022/11/29 00:49:18;;;;;;;112.75;13.35;;;;;;;;;;4913102;29;20031;-77
2022/11/29 00:51:44;;;;;;;92.78;14.13;;;;;;;;;;4929471;29;20038;-77
2022/11/29 00:54:10;;;;;;;140.82;15.07;;;;;;;;;;4913515;29;20159;-77
2022/11/29 00:56:36;;;;;;;109.50;13.75;;;;;;;;;;4926103;29;20043;-77
2022/11/29 00:59:02;;;;;;;127.38;14.68;;;;;;;;;;4930254;29;20047;-77
2022/11/29 01:01:28;;;;;;;95.10;12.80;;;;;;;;;;4927825;29;20131;-77
2022/11/29 01:03:54;;;;;;;79.00;12.35;;;;;;;;;;4931871;29;20036;-77
2022/11/29 01:06:21;;;;;;;96.95;13.52;;;;;;;;;;4931710;29;20061;-77
2022/11/29 01:08:48;;;;;;;107.57;14.32;;;;;;;;;;4930264;29;20436;-76
2022/11/29 01:11:17;;;;;;;133.23;14.40;;;;;;;;;;4928870;29;20325;-77
2022/11/29 01:13:43;;;;;;;68.78;12.43;;;;;;;;;;4929235;29;20083;-77
2022/11/29 01:16:09;;;;;;;44.13;12.57;;;;;;;;;;4928600;29;20039;-79
2022/11/29 01:18:36;;;;;;;53.42;11.88;;;;;;;;;;4911514;29;20469;-76
2022/11/29 01:21:04;;;;;;;72.70;12.35;;;;;;;;;;4912139;29;20036;-77
2022/11/29 01:23:30;;;;;;;80.35;12.32;;;;;;;;;;4928371;29;20469;-76
2022/11/29 01:26:00;;;;;;;105.07;13.68;;;;;;;;;;4948167;28;20050;-77
2022/11/29 01:28:27;;;;;;;68.07;13.90;;;;;;;;;;4945258;28;20090;-77
2022/11/29 01:30:53;;;;;;;59.45;14.40;;;;;;;;;;4949674;28;20034;-77
2022/11/29 01:33:19;;;;;;;88.78;12.95;;;;;;;;;;4945155;28;20034;-76
2022/11/29 01:35:53;;;;;;;81.80;13.07;;;;;;;;;;4951375;28;20453;-78
2022/11/29 01:38:19;;;;;;;69.60;12.07;;;;;;;;;;4946497;28;20674;-77
2022/11/29 01:40:55;;;;;;;115.82;12.80;;;;;;;;;;4948400;28;20023;-76
2022/11/29 01:43:23;;;;;;;89.32;12.32;;;;;;;;;;4944210;28;20368;-75
2022/11/29 01:45:49;;;;;;;94.38;13.35;;;;;;;;;;4950774;28;20448;-75
2022/11/29 01:48:16;;;;;;;152.48;14.15;;;;;;;;;;4946543;28;20110;-76
2022/11/29 01:50:42;;;;;;;135.25;12.52;;;;;;;;;;4916981;28;20047;-82
2022/11/29 01:53:11;;;;;;;143.68;13.65;;;;;;;;;;4945911;28;20039;-79
2022/11/29 01:55:38;;;;;;;144.88;12.45;;;;;;;;;;4948459;28;20110;-77
2022/11/29 01:58:05;;;;;;;194.20;13.07;;;;;;;;;;4947539;28;20027;-82
2022/11/29 02:00:32;;;;;;;164.50;12.98;;;;;;;;;;4946065;28;20433;-79
2022/11/29 02:03:27;;;;;;;207.18;12.57;;;;;;;;;;4950398;28;20066;-77
2022/11/29 02:05:54;;;;;;;195.50;12.52;;;;;;;;;;4931718;28;20473;-77
2022/11/29 02:08:25;;;;;;;160.50;12.60;;;;;;;;;;4948195;28;20027;-77
2022/11/29 02:11:03;;;;;;;169.40;11.27;;;;;;;;;;4950241;28;20078;-76
2022/11/29 02:13:37;;;;;;;183.65;11.50;;;;;;;;;;4929983;28;20034;-76
2022/11/29 02:16:22;;;;;;;154.10;12.18;;;;;;;;;;4943875;28;20111;-80
2022/11/29 02:19:06;;;;;;;150.18;11.10;;;;;;;;;;4928987;28;20360;-81
2022/11/29 02:21:55;;;;;;;203.88;12.93;;;;;;;;;;4947179;28;20138;-76
2022/11/29 02:24:33;;;;;;;190.45;13.15;;;;;;;;;;4934856;28;20138;-80
2022/11/29 02:27:18;;;;;;;155.75;12.32;;;;;;;;;;4948019;28;20027;-75
2022/11/29 02:29:53;;;;;;;155.02;11.43;;;;;;;;;;4948000;28;20038;-77
2022/11/29 02:32:38;;;;;;;90.32;10.00;;;;;;;;;;4945716;28;20034;-77
2022/11/29 02:35:22;;;;;;;128.20;10.52;;;;;;;;;;4939437;28;20050;-80
2022/11/29 02:37:48;;;;;;;113.80;13.68;;;;;;;;;;4946711;28;20412;-77
2022/11/29 02:40:25;;;;;;;114.88;13.52;;;;;;;;;;4943996;28;20362;-76
2022/11/29 02:43:09;;;;;;;89.82;10.63;;;;;;;;;;4945799;28;20034;-81
2022/11/29 02:45:39;;;;;;;158.32;12.30;;;;;;;;;;4944061;28;20047;-76
2022/11/29 02:48:08;;;;;;;59.65;9.45;;;;;;;;;;4942886;28;20065;-81
2022/11/29 02:50:52;;;;;;;62.10;9.45;;;;;;;;;;4943822;28;20023;-77
2022/11/29 02:53:25;;;;;;;75.72;11.40;;;;;;;;;;4945437;28;20039;-79
2022/11/29 02:55:51;;;;;;;68.35;10.00;;;;;;;;;;4944710;28;20481;-76
2022/11/29 02:58:23;;;;;;;76.90;10.38;;;;;;;;;;4942702;28;20079;-77
2022/11/29 03:01:25;;;;;;;72.32;9.57;;;;;;;;;;4941522;28;20042;-78
2022/11/29 03:04:14;;;;;;;67.28;10.35;;;;;;;;;;4882778;29;20048;-78
2022/11/29 03:06:46;;;;;;;66.00;9.57;;;;;;;;;;4938938;28;20051;-77
2022/11/29 03:09:12;;;;;;;90.07;11.20;;;;;;;;;;4944345;28;20027;-77
2022/11/29 03:11:50;;;;;;;147.35;13.52;;;;;;;;;;4942037;28;20048;-80
2022/11/29 03:14:28;;;;;;;119.00;13.45;;;;;;;;;;4943852;28;20507;-78
2022/11/29 03:16:57;;;;;;;129.48;12.02;;;;;;;;;;4943781;28;20481;-77
2022/11/29 03:19:42;;;;;;;98.07;12.38;;;;;;;;;;4944705;28;20035;-77
2022/11/29 03:22:20;;;;;;;115.05;12.63;;;;;;;;;;4945423;28;20058;-82
2022/11/29 03:24:49;;;;;;;130.77;13.48;;;;;;;;;;4926752;28;20130;-77
2022/11/29 03:27:27;;;;;;;97.25;10.32;;;;;;;;;;4943906;28;20058;-76
2022/11/29 03:29:58;;;;;;;142.23;13.68;;;;;;;;;;4944894;28;20023;-78
2022/11/29 03:32:39;;;;;;;83.38;9.98;;;;;;;;;;4943037;28;20495;-81
2022/11/29 03:35:24;;;;;;;123.40;12.45;;;;;;;;;;4940937;28;20365;-76
2022/11/29 03:38:09;;;;;;;49.80;9.40;;;;;;;;;;4944370;28;20468;-75
2022/11/29 03:40:41;;;;;;;121.78;10.90;;;;;;;;;;4943867;28;20042;-77
2022/11/29 03:43:16;;;;;;;70.70;10.48;;;;;;;;;;4940653;28;20580;-77
2022/11/29 03:45:48;;;;;;;46.17;11.15;;;;;;;;;;4936979;28;20109;-79
2022/11/29 03:48:21;;;;;;;85.27;11.17;;;;;;;;;;4943363;28;20376;-77
2022/11/29 03:50:53;;;;;;;80.78;10.75;;;;;;;;;;4946748;28;20086;-80
2022/11/29 03:53:31;;;;;;;58.30;10.40;;;;;;;;;;4935734;28;20032;-77
2022/11/29 03:56:01;;;;;;;84.07;11.18;;;;;;;;;;4944683;28;20441;-77
2022/11/29 03:58:45;;;;;;;98.40;12.52;;;;;;;;;;4946815;28;20039;-77
2022/11/29 04:01:21;;;;;;;57.95;10.13;;;;;;;;;;4946315;28;20054;-76
2022/11/29 04:04:05;;;;;;;107.28;12.77;;;;;;;;;;4944634;28;20760;-79
2022/11/29 04:06:34;;;;;;;115.75;13.05;;;;;;;;;;4947198;28;20042;-76
2022/11/29 04:09:03;;;;;;;59.67;10.45;;;;;;;;;;4947336;28;20046;-76
2022/11/29 04:11:53;;;;;;;99.30;12.43;;;;;;;;;;4932422;28;20034;-76
2022/11/29 04:14:34;;;;;;;165.85;13.30;;;;;;;;;;4945386;28;20038;-77
2022/11/29 04:17:06;;;;;;;100.93;11.65;;;;;;;;;;4947844;28;20376;-77
2022/11/29 04:19:32;;;;;;;73.25;11.52;;;;;;;;;;4946825;28;20043;-81
2022/11/29 04:22:12;;;;;;;184.52;16.25;;;;;;;;;;4948245;28;20027;-80
2022/11/29 04:24:38;;;;;;;105.47;12.35;;;;;;;;;;4939504;28;20051;-78
2022/11/29 04:27:22;;;;;;;219.55;19.10;;;;;;;;;;4928082;29;20130;-77
2022/11/29 04:29:48;;;;;;;167.20;15.27;;;;;;;;;;4925032;29;20422;-81
2022/11/29 04:32:14;;;;;;;283.30;21.52;;;;;;;;;;4928373;29;20308;-76
2022/11/29 04:34:43;;;;;;;277.30;17.80;;;;;;;;;;4926438;29;20035;-76
2022/11/29 04:37:09;;;;;;;171.43;14.23;;;;;;;;;;4926489;29;20050;-76
2022/11/29 04:39:45;;;;;;;247.80;16.02;;;;;;;;;;4925799;29;20036;-76
2022/11/29 04:42:17;;;;;;;253.80;17.23;;;;;;;;;;4924251;29;20036;-77
2022/11/29 04:44:49;;;;;;;146.70;13.68;;;;;;;;;;4926243;29;20036;-75
2022/11/29 04:47:34;;;;;;;207.52;16.95;;;;;;;;;;4928149;29;20055;-76
2022/11/29 04:50:00;;;;;;;196.27;16.13;;;;;;;;;;4926218;29;20036;-78
2022/11/29 04:53:01;;;;;;;146.00;13.52;;;;;;;;;;4928053;29;20032;-77
2022/11/29 04:55:37;;;;;;;158.35;12.70;;;;;;;;;;4847287;29;20025;-77
2022/11/29 04:58:18;;;;;;;138.55;13.38;;;;;;;;;;4912691;29;20092;-78
2022/11/29 05:01:04;;;;;;;164.82;14.07;;;;;;;;;;4924449;29;20036;-76
2022/11/29 05:03:40;;;;;;;105.47;12.18;;;;;;;;;;4926996;29;20032;-76
2022/11/29 05:06:20;;;;;;;98.47;11.45;;;;;;;;;;4925340;29;20040;-76
2022/11/29 05:08:50;;;;;;;126.90;13.10;;;;;;;;;;4925928;29;20114;-76
2022/11/29 05:11:32;;;;;;;196.10;14.90;;;;;;;;;;4926243;29;20203;-77
2022/11/29 05:14:04;;;;;;;163.75;16.92;;;;;;;;;;4926513;29;20039;-77
2022/11/29 05:16:30;;;;;;;144.70;12.25;;;;;;;;;;4924813;29;20107;-78
2022/11/29 05:18:59;;;;;;;63.55;12.00;;;;;;;;;;4927392;29;20112;-79
2022/11/29 05:21:36;;;;;;;265.67;19.02;;;;;;;;;;4925605;29;20040;-76
2022/11/29 05:24:08;;;;;;;213.98;16.75;;;;;;;;;;4908960;29;20128;-77
2022/11/29 05:26:49;;;;;;;83.38;11.38;;;;;;;;;;4927111;29;20118;-76
2022/11/29 05:29:15;;;;;;;97.53;12.48;;;;;;;;;;4927355;29;20119;-79
2022/11/29 05:31:47;;;;;;;114.70;13.25;;;;;;;;;;4927326;29;20338;-77
2022/11/29 05:34:22;;;;;;;103.03;12.50;;;;;;;;;;4928453;29;20028;-76
2022/11/29 05:36:48;;;;;;;254.35;18.80;;;;;;;;;;4909412;29;20039;-78
2022/11/29 05:39:17;;;;;;;167.40;13.23;;;;;;;;;;4925340;29;20034;-76
2022/11/29 05:42:02;;;;;;;146.55;13.55;;;;;;;;;;4923574;29;20032;-77
2022/11/29 05:44:28;;;;;;;233.07;18.55;;;;;;;;;;4916567;29;20115;-78
2022/11/29 05:47:05;;;;;;;250.30;16.80;;;;;;;;;;4926642;29;20075;-77
2022/11/29 05:49:36;;;;;;;229.80;18.88;;;;;;;;;;4924210;29;20038;-77
2022/11/29 05:52:23;;;;;;;105.80;12.75;;;;;;;;;;4924399;29;20492;-76
2022/11/29 05:55:08;;;;;;;150.48;12.45;;;;;;;;;;4924613;29;20489;-77
2022/11/29 05:57:56;;;;;;;183.27;15.82;;;;;;;;;;4924905;29;20051;-77
2022/11/29 06:00:22;;;;;;;168.13;13.20;;;;;;;;;;4926125;29;20671;-78
2022/11/29 06:03:02;;;;;;;150.27;13.32;;;;;;;;;;4910766;29;20118;-78
2022/11/29 06:05:45;;;;;;;253.73;18.17;;;;;;;;;;4925928;29;20034;-76
2022/11/29 06:08:24;;;;;;;178.95;14.27;;;;;;;;;;4926082;29;20476;-77
2022/11/29 06:11:08;;;;;;;121.18;13.35;;;;;;;;;;4921717;29;20032;-76
2022/11/29 06:13:34;;;;;;;111.72;13.32;;;;;;;;;;4923026;29;20035;-78
2022/11/29 06:16:13;;;;;;;192.13;15.68;;;;;;;;;;4924934;29;20449;-77
2022/11/29 06:18:39;;;;;;;141.88;14.77;;;;;;;;;;4925751;29;20066;-77
2022/11/29 06:21:22;;;;;;;85.45;11.20;;;;;;;;;;4908398;29;20484;-77
2022/11/29 06:24:08;;;;;;;121.07;14.38;;;;;;;;;;4902990;29;20032;-76
2022/11/29 06:26:53;;;;;;;83.18;18.15;;;;;;;;;;4945890;28;20035;-75
2022/11/29 06:29:23;;;;;;;88.88;10.90;;;;;;;;;;4951498;28;20031;-74
2022/11/29 06:31:59;;;;;;;60.50;10.57;;;;;;;;;;4928252;28;20380;-77
2022/11/29 06:34:35;;;;;;;109.63;13.77;;;;;;;;;;4956396;28;20403;-76
2022/11/29 06:37:08;;;;;;;64.25;12.07;;;;;;;;;;4956551;28;20031;-75
2022/11/29 06:39:34;;;;;;;;;;;;;;;;;;4942212;28;20503;-77
2022/11/29 06:42:00;;;;;;;87.65;12.05;;;;;;;;;;4951561;28;19945;-76
2022/11/29 06:44:26;;;;;;;102.45;14.85;;;;;;;;;;4955197;28;20099;-78
2022/11/29 06:47:18;;;;;;;90.55;13.75;;;;;;;;;;4951109;28;20745;-77
2022/11/29 06:49:49;;;;;;;166.07;14.10;;;;;;;;;;4954660;28;20516;-78
2022/11/29 06:52:33;;;;;;;87.70;12.85;;;;;;;;;;4950445;29;20035;-78
2022/11/29 06:55:03;;;;;;;99.55;12.65;;;;;;;;;;4951255;28;20031;-79
2022/11/29 06:57:29;;;;;;;99.07;13.02;;;;;;;;;;4950447;28;20034;-79
2022/11/29 07:00:02;;;;;;;287.83;17.40;;;;;;;;;;4962206;28;20564;-78
2022/11/29 07:02:44;;;;;;;132.82;12.43;;;;;;;;;;4953234;28;20546;-79
2022/11/29 07:05:15;;;;;;;324.42;19.83;;;;;;;;;;4961887;28;20114;-78
2022/11/29 07:07:41;;;;;;;238.43;14.23;;;;;;;;;;4948918;28;20115;-78
2022/11/29 07:10:13;;;;;;;207.48;13.68;;;;;;;;;;4945452;28;20031;-77
2022/11/29 07:12:40;;;;;;;143.43;14.02;;;;;;;;;;4943405;28;20114;-75
2022/11/29 07:15:06;;;;;;;129.88;15.63;;;;;;;;;;4950593;28;20042;-77
2022/11/29 07:17:47;;;;;;;133.20;19.15;;;;;;;;;;4930604;28;20048;-80
2022/11/29 07:20:43;;;;;;;160.98;18.65;;;;;;;;;;4947688;28;20055;-76
2022/11/29 07:23:13;;;;;;;158.10;16.58;;;;;;;;;;4937476;28;20124;-75
2022/11/29 07:25:57;;;;;;;127.65;15.20;;;;;;;;;;4956020;28;20553;-74
2022/11/29 07:28:43;;;;;;;30.70;11.27;;;;;;;;;;4960264;28;20093;-76
2022/11/29 07:31:16;;;;;;;36.10;11.48;;;;;;;;;;4956545;28;20041;-76
2022/11/29 07:34:01;;;;;;;29.48;13.35;;;;;;;;;;4959529;28;20038;-77
2022/11/29 07:36:29;;;;;;;25.38;11.93;;;;;;;;;;4965814;28;20127;-76
2022/11/29 07:38:55;;;;;;;34.97;12.00;;;;;;;;;;4954219;28;20034;-77
2022/11/29 07:41:45;;;;;;;25.75;11.73;;;;;;;;;;4938957;29;20050;-76
2022/11/29 07:44:24;;;;;;;23.15;11.48;;;;;;;;;;4952407;28;20058;-76
2022/11/29 07:46:51;;;;;;;31.67;14.45;;;;;;;;;;4968699;28;20030;-75
2022/11/29 07:49:17;;;;;;;34.63;14.23;;;;;;;;;;4962842;28;20035;-79
2022/11/29 07:51:43;;;;;;;26.00;11.93;;;;;;;;;;4966227;28;20019;-75
2022/11/29 07:54:10;;;;;;;26.40;12.98;;;;;;;;;;4954005;28;20207;-76
2022/11/29 07:56:36;;;;;;;32.38;12.80;;;;;;;;;;4962172;28;20444;-75
2022/11/29 07:59:02;;;;;;;32.65;12.30;;;;;;;;;;4959224;28;20032;-74
2022/11/29 08:01:28;;;;;;;26.73;15.10;;;;;;;;;;4952586;28;20178;-76
2022/11/29 08:03:54;;;;;;;26.40;11.57;;;;;;;;;;4948160;28;20134;-76
2022/11/29 08:06:26;;;;;;;28.90;12.88;;;;;;;;;;4952325;28;20039;-78
2022/11/29 08:08:52;;;;;;;25.67;13.23;;;;;;;;;;4942687;28;20046;-74
2022/11/29 08:11:18;;;;;;;30.98;14.10;;;;;;;;;;4949042;28;20031;-74
2022/11/29 08:13:44;;;;;;;29.23;13.98;;;;;;;;;;4947405;28;20062;-74
2022/11/29 08:16:15;;;;;;;26.95;13.35;;;;;;;;;;4947518;28;20035;-74
2022/11/29 08:18:42;;;;;;;30.60;13.38;;;;;;;;;;4951740;28;20464;-72
2022/11/29 08:21:08;;;;;;;33.53;13.43;;;;;;;;;;4950165;28;20126;-73
2022/11/29 08:23:36;;;;;;;71.97;36.22;;;;;;;;;;4933394;28;20038;-73
2022/11/29 08:26:03;;;;;;;28.70;12.98;;;;;;;;;;4950269;28;20508;-75
2022/11/29 08:28:29;;;;;;;37.75;14.05;;;;;;;;;;4950551;28;20070;-74
2022/11/29 08:31:02;;;;;;;41.28;16.52;;;;;;;;;;4943681;28;20027;-74
2022/11/29 08:33:28;;;;;;;32.47;15.80;;;;;;;;;;4949550;28;20043;-78
2022/11/29 08:35:54;;;;;;;34.10;13.93;;;;;;;;;;4944911;28;20038;-73
2022/11/29 08:38:20;;;;;;;28.27;12.32;;;;;;;;;;4948709;28;20099;-73
2022/11/29 08:40:46;;;;;;;35.80;11.82;;;;;;;;;;4948468;28;20413;-72
2022/11/29 08:43:12;;;;;;;27.00;12.13;;;;;;;;;;4929544;28;20648;-77
2022/11/29 08:45:38;;;;;;;39.55;12.70;;;;;;;;;;4946959;28;20027;-74
2022/11/29 08:48:05;;;;;;;30.42;11.68;;;;;;;;;;4927714;28;20339;-72
2022/11/29 08:50:31;;;;;;;34.85;10.93;;;;;;;;;;4942311;28;20485;-74
2022/11/29 08:55:45;;;;;;;35.55;13.32;;;;;;;;;;4944418;28;20171;-76
2022/11/29 08:58:12;;;;;;;41.92;12.43;;;;;;;;;;4945931;28;20417;-74
2022/11/29 09:00:39;;;;;;;34.78;11.35;;;;;;;;;;4947325;28;20027;-72
2022/11/29 09:05:53;;;;;;;30.98;9.65;;;;;;;;;;4891938;28;20046;-72
2022/11/29 09:08:19;;;;;;;29.88;9.07;;;;;;;;;;4945837;28;20023;-73
2022/11/29 09:10:46;;;;;;;24.25;8.57;;;;;;;;;;4925195;28;20035;-73
2022/11/29 09:13:12;;;;;;;30.77;9.73;;;;;;;;;;4937449;28;20027;-76
2022/11/29 09:15:39;;;;;;;26.33;8.85;;;;;;;;;;4923312;29;20023;-75
2022/11/29 09:18:05;;;;;;;43.22;20.25;;;;;;;;;;4924751;28;20479;-80
2022/11/29 09:20:32;;;;;;;25.58;8.63;;;;;;;;;;4930453;28;20027;-75
2022/11/29 09:22:59;;;;;;;31.45;8.82;;;;;;;;;;4943970;28;20761;-78
2022/11/29 09:25:25;;;;;;;31.20;8.80;;;;;;;;;;4936016;28;20055;-73
2022/11/29 09:27:51;;;;;;;28.88;8.75;;;;;;;;;;4924000;29;20123;-79
2022/11/29 09:30:18;;;;;;;24.20;9.15;;;;;;;;;;4926193;29;20035;-77
2022/11/29 09:32:45;;;;;;;33.90;8.82;;;;;;;;;;4926203;29;20055;-72
2022/11/29 09:35:11;;;;;;;24.17;11.40;;;;;;;;;;4907650;29;20040;-77
2022/11/29 09:37:37;;;;;;;28.02;11.00;;;;;;;;;;4932711;29;20080;-75
2022/11/29 09:40:04;;;;;;;24.13;9.60;;;;;;;;;;4906733;29;20031;-72
2022/11/29 09:42:46;;;;;;;27.10;9.10;;;;;;;;;;4926074;29;20040;-78
2022/11/29 09:45:26;;;;;;;23.65;8.82;;;;;;;;;;4919461;29;20614;-76
2022/11/29 09:47:52;;;;;;;29.52;9.32;;;;;;;;;;4918429;29;20130;-79
2022/11/29 09:50:21;;;;;;;28.77;10.45;;;;;;;;;;4902184;29;20035;-79
2022/11/29 09:52:47;;;;;;;25.88;11.02;;;;;;;;;;4923381;29;20023;-72
2022/11/29 09:55:49;;;;;;;24.30;8.30;;;;;;;;;;4923374;29;20119;-72
2022/11/29 09:58:19;;;;;;;28.48;8.57;;;;;;;;;;4848639;29;20053;-72
2022/11/29 10:00:48;;;;;;;27.13;8.43;;;;;;;;;;4913147;29;20047;-72
2022/11/29 10:03:22;;;;;;;29.17;8.00;;;;;;;;;;4926184;29;20101;-73
2022/11/29 10:05:50;;;;;;;26.63;8.23;;;;;;;;;;4928590;29;20088;-73
2022/11/29 10:08:25;;;;;;;26.52;9.63;;;;;;;;;;4939270;29;20035;-74
2022/11/29 10:10:54;;;;;;;22.25;7.60;;;;;;;;;;4928534;29;20043;-71
2022/11/29 10:13:22;;;;;;;26.17;8.13;;;;;;;;;;4938420;29;20027;-71
2022/11/29 10:15:51;;;;;;;23.45;8.70;;;;;;;;;;4926942;29;20042;-72
2022/11/29 10:18:23;;;;;;;22.60;7.47;;;;;;;;;;4916500;29;20064;-72
2022/11/29 10:20:50;;;;;;;21.77;7.63;;;;;;;;;;4929620;29;20232;-72
2022/11/29 10:23:16;;;;;;;27.27;7.72;;;;;;;;;;4938225;29;20024;-72
2022/11/29 10:25:44;;;;;;;19.45;6.70;;;;;;;;;;4932123;28;20054;-72
2022/11/29 10:28:14;;;;;;;23.13;7.03;;;;;;;;;;4915277;29;20332;-75
2022/11/29 10:30:40;;;;;;;28.35;8.07;;;;;;;;;;4930028;29;20039;-73
2022/11/29 10:33:12;;;;;;;31.23;7.30;;;;;;;;;;4932398;29;20062;-72
2022/11/29 10:35:38;;;;;;;25.83;6.38;;;;;;;;;;4928664;29;20036;-73
2022/11/29 10:38:05;;;;;;;30.92;6.50;;;;;;;;;;4918393;29;20039;-72
2022/11/29 10:40:33;;;;;;;25.90;6.15;;;;;;;;;;4909025;29;20063;-71
2022/11/29 10:43:00;;;;;;;21.45;7.28;;;;;;;;;;4942156;29;20042;-72
2022/11/29 10:45:26;;;;;;;15.73;5.97;;;;;;;;;;4934286;29;20031;-72
2022/11/29 10:47:53;;;;;;;21.15;6.40;;;;;;;;;;4931764;29;20039;-69
2022/11/29 10:50:22;;;;;;;24.73;7.03;;;;;;;;;;4919854;29;20178;-72
2022/11/29 10:52:48;;;;;;;29.20;7.57;;;;;;;;;;4931215;29;20058;-74
2022/11/29 10:55:15;;;;;;;34.38;12.35;;;;;;;;;;4929984;29;20024;-72
2022/11/29 10:58:00;;;;;;;29.27;7.50;;;;;;;;;;4930897;29;20039;-75
2022/11/29 11:00:26;;;;;;;28.35;7.25;;;;;;;;;;4929472;29;20024;-78
2022/11/29 11:02:52;;;;;;;25.77;7.57;;;;;;;;;;4925448;29;20378;-72
2022/11/29 11:05:25;;;;;;;26.23;6.13;;;;;;;;;;4917179;29;20028;-79
2022/11/29 11:07:58;;;;;;;20.98;6.22;;;;;;;;;;4928347;29;20031;-71
2022/11/29 11:10:29;;;;;;;21.00;6.28;;;;;;;;;;4933219;29;20044;-72
2022/11/29 11:13:03;;;;;;;29.17;7.03;;;;;;;;;;4935980;29;20032;-75
2022/11/29 11:15:30;;;;;;;27.40;7.30;;;;;;;;;;4928312;29;20439;-77
2022/11/29 11:18:04;;;;;;;23.65;6.60;;;;;;;;;;4926790;29;20052;-71
2022/11/29 11:20:32;;;;;;;28.17;6.78;;;;;;;;;;4939138;29;20035;-71
2022/11/29 11:23:20;;;;;;;29.42;6.82;;;;;;;;;;4930967;29;20548;-75
2022/11/29 11:25:50;;;;;;;29.67;6.63;;;;;;;;;;4932149;29;20055;-72
2022/11/29 11:28:22;;;;;;;27.17;6.50;;;;;;;;;;4968258;28;21548;-75
2022/11/29 11:30:50;;;;;;;27.85;6.07;;;;;;;;;;4954050;28;20053;-74
2022/11/29 11:33:25;;;;;;;28.48;7.07;;;;;;;;;;4948187;28;20043;-75
2022/11/29 11:36:01;;;;;;;21.45;5.65;;;;;;;;;;4948185;28;20496;-74
2022/11/29 11:38:27;;;;;;;24.55;7.28;;;;;;;;;;4944552;29;20449;-75
2022/11/29 11:41:02;;;;;;;31.83;7.15;;;;;;;;;;4947664;29;20079;-76
2022/11/29 11:43:28;;;;;;;35.17;7.75;;;;;;;;;;4963922;28;20063;-73
2022/11/29 11:45:54;;;;;;;27.42;7.07;;;;;;;;;;4951627;28;20114;-74
2022/11/29 11:48:20;;;;;;;27.20;7.30;;;;;;;;;;4944402;28;20042;-77
2022/11/29 11:50:51;;;;;;;25.52;7.13;;;;;;;;;;4922096;28;20403;-75
2022/11/29 11:53:20;;;;;;;39.92;8.25;;;;;;;;;;4956288;28;20078;-73
2022/11/29 11:55:54;;;;;;;38.58;13.63;;;;;;;;;;4949722;28;20122;-70
2022/11/29 11:58:24;;;;;;;30.27;7.15;;;;;;;;;;4968457;28;20110;-74
2022/11/29 12:01:13;;;;;;;31.40;6.82;;;;;;;;;;4935734;29;20063;-76
2022/11/29 12:03:50;;;;;;;29.63;8.70;;;;;;;;;;4945484;28;20027;-74
2022/11/29 12:06:17;;;;;;;24.90;7.65;;;;;;;;;;4954387;28;20476;-72
2022/11/29 12:08:44;;;;;;;29.17;7.07;;;;;;;;;;4932821;29;20031;-76
2022/11/29 12:11:12;;;;;;;27.02;8.02;;;;;;;;;;4966867;28;20043;-73
2022/11/29 12:13:40;;;;;;;31.40;7.65;;;;;;;;;;4949361;28;20035;-72
2022/11/29 12:16:10;;;;;;;33.05;8.88;;;;;;;;;;4958278;28;20035;-74
2022/11/29 12:18:43;;;;;;;26.02;6.78;;;;;;;;;;4935654;29;20043;-73
2022/11/29 12:21:13;;;;;;;24.98;7.00;;;;;;;;;;4960277;28;20400;-72
2022/11/29 12:23:39;;;;;;;22.48;6.72;;;;;;;;;;4955962;28;20106;-78
2022/11/29 12:26:13;;;;;;;17.92;7.57;;;;;;;;;;4952206;28;20142;-72
2022/11/29 12:28:40;;;;;;;24.20;8.25;;;;;;;;;;4943353;29;20031;-72
2022/11/29 12:31:25;;;;;;;17.63;9.55;;;;;;;;;;4934398;29;20024;-71
2022/11/29 12:33:54;;;;;;;17.95;8.98;;;;;;;;;;4915267;29;20035;-72
2022/11/29 12:36:20;;;;;;;16.67;7.40;;;;;;;;;;4898623;29;20028;-72
2022/11/29 12:38:49;;;;;;;17.80;9.18;;;;;;;;;;4938372;29;20109;-76
2022/11/29 12:41:15;;;;;;;16.45;8.90;;;;;;;;;;4933393;29;20075;-72
2022/11/29 12:43:56;;;;;;;14.50;7.80;;;;;;;;;;4936399;29;20489;-74
2022/11/29 12:46:23;;;;;;;12.75;7.88;;;;;;;;;;4936316;29;20095;-73
2022/11/29 12:48:59;;;;;;;14.73;6.63;;;;;;;;;;4932630;29;20067;-72
2022/11/29 12:51:40;;;;;;;15.73;6.78;;;;;;;;;;4932551;29;20027;-73
2022/11/29 12:54:06;;;;;;;8.55;6.40;;;;;;;;;;4934518;29;20047;-73
2022/11/29 12:56:36;;;;;;;10.13;6.32;;;;;;;;;;4936436;29;20039;-73
2022/11/29 12:59:08;;;;;;;12.70;6.65;;;;;;;;;;4939047;29;20503;-72
2022/11/29 13:01:46;;;;;;;14.13;7.43;;;;;;;;;;4938001;29;20047;-76
2022/11/29 13:04:20;;;;;;;9.98;7.65;;;;;;;;;;4948463;29;20166;-72
2022/11/29 13:07:02;;;;;;;10.45;7.03;;;;;;;;;;4944661;29;20043;-73
2022/11/29 13:09:28;;;;;;;13.48;6.97;;;;;;;;;;4933073;29;20032;-75
2022/11/29 13:12:04;;;;;;;13.23;7.47;;;;;;;;;;4934612;29;20115;-73
2022/11/29 13:14:33;;;;;;;11.48;7.00;;;;;;;;;;4943888;29;20114;-72
2022/11/29 13:16:59;;;;;;;14.00;7.50;;;;;;;;;;4945209;29;20040;-75
2022/11/29 13:19:42;;;;;;;19.52;7.53;;;;;;;;;;4935660;29;20082;-74
2022/11/29 13:22:18;;;;;;;9.88;6.80;;;;;;;;;;4952084;29;20137;-78
2022/11/29 13:24:44;;;;;;;11.02;7.25;;;;;;;;;;4951982;29;20031;-73
2022/11/29 13:27:15;;;;;;;15.27;8.02;;;;;;;;;;4935462;28;20048;-72
2022/11/29 13:29:42;;;;;;;12.48;7.45;;;;;;;;;;4944197;29;20249;-73
2022/11/29 13:32:10;;;;;;;12.43;7.40;;;;;;;;;;4932533;29;20047;-71
2022/11/29 13:34:41;;;;;;;10.05;7.47;;;;;;;;;;4938120;29;20027;-72
2022/11/29 13:37:21;;;;;;;13.93;8.05;;;;;;;;;;4948836;29;20481;-72
2022/11/29 13:40:05;;;;;;;16.13;7.68;;;;;;;;;;4933451;29;20019;-72
2022/11/29 13:42:40;;;;;;;11.50;7.60;;;;;;;;;;4929969;29;20091;-71
2022/11/29 13:45:16;;;;;;;14.48;7.95;;;;;;;;;;4931263;29;20039;-72
2022/11/29 13:47:56;;;;;;;10.60;7.00;;;;;;;;;;4919533;29;20052;-73
2022/11/29 13:50:35;;;;;;;15.40;7.53;;;;;;;;;;4926477;29;20092;-77
2022/11/29 13:53:11;;;;;;;12.48;7.88;;;;;;;;;;4932847;29;20028;-73
2022/11/29 13:55:43;;;;;;;11.70;7.47;;;;;;;;;;4936127;29;20097;-73
2022/11/29 13:58:29;;;;;;;9.73;7.83;;;;;;;;;;4941667;29;20039;-73
2022/11/29 14:00:55;;;;;;;13.88;7.00;;;;;;;;;;4938082;29;20318;-74
2022/11/29 14:03:27;;;;;;;10.82;8.13;;;;;;;;;;4949311;29;20086;-72
2022/11/29 14:06:04;;;;;;;13.10;7.53;;;;;;;;;;4931805;29;20119;-73
2022/11/29 14:08:35;;;;;;;12.23;8.07;;;;;;;;;;4938301;29;20042;-72
2022/11/29 14:11:13;;;;;;;12.70;6.93;;;;;;;;;;4932194;29;20031;-72
2022/11/29 14:13:51;;;;;;;10.70;7.05;;;;;;;;;;4929497;29;20070;-73
2022/11/29 14:16:19;;;;;;;11.45;6.82;;;;;;;;;;4916181;29;20039;-72
2022/11/29 14:18:48;;;;;;;8.88;7.38;;;;;;;;;;4925007;29;20039;-74
2022/11/29 14:21:14;;;;;;;14.32;7.47;;;;;;;;;;4922174;29;20024;-71
2022/11/29 14:23:45;;;;;;;8.15;5.53;;;;;;;;;;4917814;29;20088;-72
2022/11/29 14:26:11;;;;;;;8.13;5.60;;;;;;;;;;4935445;28;20191;-72
2022/11/29 14:28:38;;;;;;;10.13;5.55;;;;;;;;;;4943624;28;20394;-71
2022/11/29 14:31:05;;;;;;;11.77;8.85;;;;;;;;;;4943276;28;20040;-70
2022/11/29 14:33:40;;;;;;;21.50;14.90;;;;;;;;;;4947792;28;20051;-75
2022/11/29 14:36:06;;;;;;;20.20;12.20;;;;;;;;;;4945693;29;20070;-72
2022/11/29 14:38:45;;;;;;;13.30;9.15;;;;;;;;;;4962451;28;20075;-76
2022/11/29 14:41:30;;;;;;;4.30;3.90;;;;;;;;;;4953460;28;20035;-71
2022/11/29 14:44:15;;;;;;;4.35;3.92;;;;;;;;;;4951409;29;20031;-70
2022/11/29 14:46:43;;;;;;;8.13;4.85;;;;;;;;;;4943768;28;20035;-72
2022/11/29 14:49:19;;;;;;;8.60;4.70;;;;;;;;;;4927174;28;20055;-75
2022/11/29 14:52:05;;;;;;;6.10;4.65;;;;;;;;;;4942786;28;20027;-74